sensor_id;sensor_type;location;lat;lon;timestamp;pressure;altitude;pressure_sealevel;temperature
42673;BMP280;28284;46.514;30.724;2023-08-21T00:00:42;100807.75;;;27.96
42673;BMP280;28284;46.514;30.724;2023-08-21T00:03:07;100809.03;;;27.95
42673;BMP280;28284;46.514;30.724;2023-08-21T00:05:33;100808.53;;;27.97
42673;BMP280;28284;46.514;30.724;2023-08-21T00:07:58;100808.53;;;27.97
42673;BMP280;28284;46.514;30.724;2023-08-21T00:10:23;100814.09;;;27.97
42673;BMP280;28284;46.514;30.724;2023-08-21T00:12:48;100811.06;;;27.95
42673;BMP280;28284;46.514;30.724;2023-08-21T00:15:14;100810.75;;;27.93
42673;BMP280;28284;46.514;30.724;2023-08-21T00:17:39;100802.66;;;27.89
42673;BMP280;28284;46.514;30.724;2023-08-21T00:20:05;100817.56;;;27.86
42673;BMP280;28284;46.514;30.724;2023-08-21T00:22:30;100804.63;;;27.83
42673;BMP280;28284;46.514;30.724;2023-08-21T00:24:55;100815.22;;;27.79
42673;BMP280;28284;46.514;30.724;2023-08-21T00:27:20;100805.56;;;27.75
42673;BMP280;28284;46.514;30.724;2023-08-21T00:29:46;100808.06;;;27.73
42673;BMP280;28284;46.514;30.724;2023-08-21T00:32:11;100802.25;;;27.71
42673;BMP280;28284;46.514;30.724;2023-08-21T00:34:37;100807.81;;;27.71
42673;BMP280;28284;46.514;30.724;2023-08-21T00:37:02;100806.28;;;27.70
42673;BMP280;28284;46.514;30.724;2023-08-21T00:39:28;100801.25;;;27.69
42673;BMP280;28284;46.514;30.724;2023-08-21T00:41:53;100809.59;;;27.69
42673;BMP280;28284;46.514;30.724;2023-08-21T00:44:18;100803.25;;;27.68
42673;BMP280;28284;46.514;30.724;2023-08-21T00:46:44;100799.69;;;27.68
42673;BMP280;28284;46.514;30.724;2023-08-21T00:49:09;100796.13;;;27.67
42673;BMP280;28284;46.514;30.724;2023-08-21T00:51:35;100801.50;;;27.71
42673;BMP280;28284;46.514;30.724;2023-08-21T00:54:01;100799.47;;;27.71
42673;BMP280;28284;46.514;30.724;2023-08-21T00:56:26;100797.47;;;27.72
42673;BMP280;28284;46.514;30.724;2023-08-21T00:58:51;100798.19;;;27.72
42673;BMP280;28284;46.514;30.724;2023-08-21T01:01:16;100807.31;;;27.73
42673;BMP280;28284;46.514;30.724;2023-08-21T01:03:42;100801.97;;;27.69
42673;BMP280;28284;46.514;30.724;2023-08-21T01:06:08;100804.22;;;27.65
42673;BMP280;28284;46.514;30.724;2023-08-21T01:08:37;100801.63;;;27.56
42673;BMP280;28284;46.514;30.724;2023-08-21T01:11:08;100813.28;;;27.60
42673;BMP280;28284;46.514;30.724;2023-08-21T01:16:10;100808.19;;;27.53
42673;BMP280;28284;46.514;30.724;2023-08-21T01:18:37;100807.63;;;27.49
42673;BMP280;28284;46.514;30.724;2023-08-21T01:21:03;100809.63;;;27.49
42673;BMP280;28284;46.514;30.724;2023-08-21T01:25:58;100816.19;;;27.46
42673;BMP280;28284;46.514;30.724;2023-08-21T01:28:23;100829.09;;;27.43
42673;BMP280;28284;46.514;30.724;2023-08-21T01:30:49;100819.41;;;27.39
42673;BMP280;28284;46.514;30.724;2023-08-21T01:33:15;100817.13;;;27.37
42673;BMP280;28284;46.514;30.724;2023-08-21T01:35:41;100813.31;;;27.35
42673;BMP280;28284;46.514;30.724;2023-08-21T01:38:06;100804.69;;;27.33
42673;BMP280;28284;46.514;30.724;2023-08-21T01:40:32;100802.38;;;27.31
42673;BMP280;28284;46.514;30.724;2023-08-21T01:42:57;100806.41;;;27.30
42673;BMP280;28284;46.514;30.724;2023-08-21T01:45:22;100808.19;;;27.28
42673;BMP280;28284;46.514;30.724;2023-08-21T01:47:48;100823.34;;;27.27
42673;BMP280;28284;46.514;30.724;2023-08-21T01:50:13;100814.94;;;27.22
42673;BMP280;28284;46.514;30.724;2023-08-21T01:52:39;100820.50;;;27.22
42673;BMP280;28284;46.514;30.724;2023-08-21T01:55:04;100830.56;;;27.19
42673;BMP280;28284;46.514;30.724;2023-08-21T01:57:32;100829.03;;;27.18
42673;BMP280;28284;46.514;30.724;2023-08-21T01:59:57;100840.38;;;27.15
42673;BMP280;28284;46.514;30.724;2023-08-21T02:02:22;100838.09;;;27.13
42673;BMP280;28284;46.514;30.724;2023-08-21T02:04:48;100828.44;;;27.09
42673;BMP280;28284;46.514;30.724;2023-08-21T02:07:13;100829.41;;;27.06
42673;BMP280;28284;46.514;30.724;2023-08-21T02:09:39;100826.34;;;27.04
42673;BMP280;28284;46.514;30.724;2023-08-21T02:12:04;100822.81;;;27.03
42673;BMP280;28284;46.514;30.724;2023-08-21T02:14:29;100825.59;;;27.03
42673;BMP280;28284;46.514;30.724;2023-08-21T02:16:55;100823.31;;;27.02
42673;BMP280;28284;46.514;30.724;2023-08-21T02:19:20;100814.66;;;27.00
42673;BMP280;28284;46.514;30.724;2023-08-21T02:21:45;100819.22;;;26.97
42673;BMP280;28284;46.514;30.724;2023-08-21T02:24:11;100830.06;;;26.95
42673;BMP280;28284;46.514;30.724;2023-08-21T02:26:36;100824.50;;;26.95
42673;BMP280;28284;46.514;30.724;2023-08-21T02:29:01;100824.22;;;26.93
42673;BMP280;28284;46.514;30.724;2023-08-21T02:31:28;100820.69;;;26.93
42673;BMP280;28284;46.514;30.724;2023-08-21T02:33:54;100817.59;;;26.91
42673;BMP280;28284;46.514;30.724;2023-08-21T02:36:19;100832.78;;;26.90
42673;BMP280;28284;46.514;30.724;2023-08-21T02:38:44;100832.50;;;26.88
42673;BMP280;28284;46.514;30.724;2023-08-21T02:41:09;100829.44;;;26.86
42673;BMP280;28284;46.514;30.724;2023-08-21T02:43:35;100833.19;;;26.83
42673;BMP280;28284;46.514;30.724;2023-08-21T02:46:00;100831.09;;;26.78
42673;BMP280;28284;46.514;30.724;2023-08-21T02:48:25;100832.81;;;26.75
42673;BMP280;28284;46.514;30.724;2023-08-21T02:50:51;100834.38;;;26.76
42673;BMP280;28284;46.514;30.724;2023-08-21T02:53:16;100830.84;;;26.76
42673;BMP280;28284;46.514;30.724;2023-08-21T02:55:41;100822.00;;;26.77
42673;BMP280;28284;46.514;30.724;2023-08-21T02:58:06;100832.63;;;26.79
42673;BMP280;28284;46.514;30.724;2023-08-21T03:00:32;100827.84;;;26.79
42673;BMP280;28284;46.514;30.724;2023-08-21T03:02:57;100831.16;;;26.83
42673;BMP280;28284;46.514;30.724;2023-08-21T03:05:23;100835.00;;;26.86
42673;BMP280;28284;46.514;30.724;2023-08-21T03:07:48;100836.81;;;26.89
42673;BMP280;28284;46.514;30.724;2023-08-21T03:10:13;100838.88;;;26.94
42673;BMP280;28284;46.514;30.724;2023-08-21T03:12:39;100836.72;;;27.03
42673;BMP280;28284;46.514;30.724;2023-08-21T03:15:04;100838.66;;;27.17
42673;BMP280;28284;46.514;30.724;2023-08-21T03:17:30;100834.78;;;27.34
42673;BMP280;28284;46.514;30.724;2023-08-21T03:19:55;100831.94;;;27.54
42673;BMP280;28284;46.514;30.724;2023-08-21T03:22:21;100840.03;;;27.77
42673;BMP280;28284;46.514;30.724;2023-08-21T03:24:46;100837.97;;;28.03
42673;BMP280;28284;46.514;30.724;2023-08-21T03:27:11;100835.13;;;28.34
42673;BMP280;28284;46.514;30.724;2023-08-21T03:29:37;100834.00;;;28.68
42673;BMP280;28284;46.514;30.724;2023-08-21T03:32:02;100843.00;;;28.99
42673;BMP280;28284;46.514;30.724;2023-08-21T03:34:27;100840.03;;;29.29
42673;BMP280;28284;46.514;30.724;2023-08-21T03:36:52;100846.41;;;29.68
42673;BMP280;28284;46.514;30.724;2023-08-21T03:39:18;100839.78;;;29.98
42673;BMP280;28284;46.514;30.724;2023-08-21T03:41:43;100847.31;;;30.36
42673;BMP280;28284;46.514;30.724;2023-08-21T03:44:08;100852.78;;;30.74
42673;BMP280;28284;46.514;30.724;2023-08-21T03:46:34;100856.34;;;31.14
42673;BMP280;28284;46.514;30.724;2023-08-21T03:48:59;100860.34;;;31.59
42673;BMP280;28284;46.514;30.724;2023-08-21T03:51:24;100857.88;;;32.03
42673;BMP280;28284;46.514;30.724;2023-08-21T03:53:50;100867.09;;;32.46
42673;BMP280;28284;46.514;30.724;2023-08-21T03:56:15;100861.28;;;32.80
42673;BMP280;28284;46.514;30.724;2023-08-21T03:58:40;100866.78;;;33.22
42673;BMP280;28284;46.514;30.724;2023-08-21T04:01:06;100867.13;;;33.63
42673;BMP280;28284;46.514;30.724;2023-08-21T04:03:31;100865.84;;;34.02
42673;BMP280;28284;46.514;30.724;2023-08-21T04:05:56;100871.75;;;34.50
42673;BMP280;28284;46.514;30.724;2023-08-21T04:08:22;100874.88;;;34.93
42673;BMP280;28284;46.514;30.724;2023-08-21T04:10:47;100877.19;;;35.35
42673;BMP280;28284;46.514;30.724;2023-08-21T04:13:13;100884.31;;;35.76
42673;BMP280;28284;46.514;30.724;2023-08-21T04:15:38;100887.50;;;36.15
42673;BMP280;28284;46.514;30.724;2023-08-21T04:18:03;100881.88;;;36.65
42673;BMP280;28284;46.514;30.724;2023-08-21T04:20:29;100895.94;;;37.15
42673;BMP280;28284;46.514;30.724;2023-08-21T04:22:54;100887.81;;;37.56
42673;BMP280;28284;46.514;30.724;2023-08-21T04:25:20;100893.75;;;38.04
42673;BMP280;28284;46.514;30.724;2023-08-21T04:27:45;100890.19;;;38.50
42673;BMP280;28284;46.514;30.724;2023-08-21T04:30:10;100899.47;;;38.99
42673;BMP280;28284;46.514;30.724;2023-08-21T04:32:36;100900.94;;;39.49
42673;BMP280;28284;46.514;30.724;2023-08-21T04:35:01;100905.97;;;39.91
42673;BMP280;28284;46.514;30.724;2023-08-21T04:37:26;100909.00;;;40.36
42673;BMP280;28284;46.514;30.724;2023-08-21T04:39:52;100913.63;;;40.67
42673;BMP280;28284;46.514;30.724;2023-08-21T04:42:18;100908.84;;;41.05
42673;BMP280;28284;46.514;30.724;2023-08-21T04:44:43;100916.72;;;41.33
42673;BMP280;28284;46.514;30.724;2023-08-21T04:47:27;100920.03;;;41.67
42673;BMP280;28284;46.514;30.724;2023-08-21T04:49:52;100932.31;;;42.07
42673;BMP280;28284;46.514;30.724;2023-08-21T04:52:18;100925.25;;;42.26
42673;BMP280;28284;46.514;30.724;2023-08-21T04:54:44;100933.38;;;42.60
42673;BMP280;28284;46.514;30.724;2023-08-21T04:57:09;100933.81;;;42.96
42673;BMP280;28284;46.514;30.724;2023-08-21T04:59:35;100940.41;;;43.29
42673;BMP280;28284;46.514;30.724;2023-08-21T05:02:01;100940.09;;;43.66
42673;BMP280;28284;46.514;30.724;2023-08-21T05:04:26;100935.84;;;43.88
42673;BMP280;28284;46.514;30.724;2023-08-21T05:06:51;100939.56;;;44.22
42673;BMP280;28284;46.514;30.724;2023-08-21T05:09:17;100942.56;;;44.58
42673;BMP280;28284;46.514;30.724;2023-08-21T05:11:42;100943.06;;;44.89
42673;BMP280;28284;46.514;30.724;2023-08-21T05:14:07;100952.50;;;45.14
42673;BMP280;28284;46.514;30.724;2023-08-21T05:16:33;100946.19;;;45.40
42673;BMP280;28284;46.514;30.724;2023-08-21T05:18:58;100954.81;;;45.65
42673;BMP280;28284;46.514;30.724;2023-08-21T05:21:23;100944.81;;;45.77
42673;BMP280;28284;46.514;30.724;2023-08-21T05:23:48;100946.16;;;46.01
42673;BMP280;28284;46.514;30.724;2023-08-21T05:26:14;100947.50;;;46.24
42673;BMP280;28284;46.514;30.724;2023-08-21T05:28:39;100947.53;;;46.51
42673;BMP280;28284;46.514;30.724;2023-08-21T05:31:04;100943.94;;;46.77
42673;BMP280;28284;46.514;30.724;2023-08-21T05:33:29;100949.97;;;46.96
42673;BMP280;28284;46.514;30.724;2023-08-21T05:35:56;100952.88;;;47.25
42673;BMP280;28284;46.514;30.724;2023-08-21T05:38:21;100948.88;;;47.45
42673;BMP280;28284;46.514;30.724;2023-08-21T05:40:47;100946.63;;;47.57
42673;BMP280;28284;46.514;30.724;2023-08-21T05:43:13;100954.38;;;47.83
42673;BMP280;28284;46.514;30.724;2023-08-21T05:45:38;100964.88;;;48.07
42673;BMP280;28284;46.514;30.724;2023-08-21T05:48:03;100966.28;;;48.37
42673;BMP280;28284;46.514;30.724;2023-08-21T05:50:29;100958.44;;;48.55
42673;BMP280;28284;46.514;30.724;2023-08-21T05:52:54;100959.56;;;48.63
42673;BMP280;28284;46.514;30.724;2023-08-21T05:55:19;100963.84;;;48.62
42673;BMP280;28284;46.514;30.724;2023-08-21T05:57:45;100967.81;;;48.70
42673;BMP280;28284;46.514;30.724;2023-08-21T06:00:10;100965.09;;;48.74
42673;BMP280;28284;46.514;30.724;2023-08-21T06:02:36;100972.47;;;48.94
42673;BMP280;28284;46.514;30.724;2023-08-21T06:05:01;100975.00;;;49.19
42673;BMP280;28284;46.514;30.724;2023-08-21T06:07:26;100971.97;;;49.32
42673;BMP280;28284;46.514;30.724;2023-08-21T06:09:52;100981.31;;;49.33
42673;BMP280;28284;46.514;30.724;2023-08-21T06:12:18;100974.84;;;49.32
42673;BMP280;28284;46.514;30.724;2023-08-21T06:14:43;100974.84;;;49.15
42673;BMP280;28284;46.514;30.724;2023-08-21T06:17:09;100977.88;;;49.19
42673;BMP280;28284;46.514;30.724;2023-08-21T06:19:34;100976.16;;;49.12
42673;BMP280;28284;46.514;30.724;2023-08-21T06:22:00;100982.88;;;49.19
42673;BMP280;28284;46.514;30.724;2023-08-21T06:24:25;100978.22;;;49.27
42673;BMP280;28284;46.514;30.724;2023-08-21T06:26:51;100984.38;;;49.37
42673;BMP280;28284;46.514;30.724;2023-08-21T06:29:16;100986.69;;;49.40
42673;BMP280;28284;46.514;30.724;2023-08-21T06:31:42;100989.06;;;49.46
42673;BMP280;28284;46.514;30.724;2023-08-21T06:34:09;100985.38;;;49.43
42673;BMP280;28284;46.514;30.724;2023-08-21T06:36:34;100984.81;;;49.47
42673;BMP280;28284;46.514;30.724;2023-08-21T06:38:59;100990.06;;;49.52
42673;BMP280;28284;46.514;30.724;2023-08-21T06:41:24;100995.66;;;49.48
42673;BMP280;28284;46.514;30.724;2023-08-21T06:43:50;100992.75;;;49.31
42673;BMP280;28284;46.514;30.724;2023-08-21T06:46:15;100992.16;;;49.32
42673;BMP280;28284;46.514;30.724;2023-08-21T06:48:41;100987.09;;;49.33
42673;BMP280;28284;46.514;30.724;2023-08-21T06:51:07;100986.94;;;49.29
42673;BMP280;28284;46.514;30.724;2023-08-21T06:53:32;100990.88;;;49.20
42673;BMP280;28284;46.514;30.724;2023-08-21T06:55:57;100994.13;;;49.13
42673;BMP280;28284;46.514;30.724;2023-08-21T06:58:26;100985.72;;;49.01
42673;BMP280;28284;46.514;30.724;2023-08-21T07:00:53;100985.13;;;48.88
42673;BMP280;28284;46.514;30.724;2023-08-21T07:03:18;100977.22;;;48.88
42673;BMP280;28284;46.514;30.724;2023-08-21T07:05:46;100979.00;;;48.95
42673;BMP280;28284;46.514;30.724;2023-08-21T07:08:12;100982.44;;;48.91
42673;BMP280;28284;46.514;30.724;2023-08-21T07:10:37;100977.97;;;48.89
42673;BMP280;28284;46.514;30.724;2023-08-21T07:13:03;100982.56;;;48.78
42673;BMP280;28284;46.514;30.724;2023-08-21T07:15:28;100983.78;;;48.73
42673;BMP280;28284;46.514;30.724;2023-08-21T07:17:54;100985.88;;;48.73
42673;BMP280;28284;46.514;30.724;2023-08-21T07:20:20;100991.31;;;48.65
42673;BMP280;28284;46.514;30.724;2023-08-21T07:22:46;100974.63;;;48.46
42673;BMP280;28284;46.514;30.724;2023-08-21T07:25:11;100980.66;;;48.37
42673;BMP280;28284;46.514;30.724;2023-08-21T07:27:36;100983.44;;;48.20
42673;BMP280;28284;46.514;30.724;2023-08-21T07:30:02;100984.19;;;48.20
42673;BMP280;28284;46.514;30.724;2023-08-21T07:32:27;100980.66;;;48.22
42673;BMP280;28284;46.514;30.724;2023-08-21T07:34:53;100980.19;;;48.27
42673;BMP280;28284;46.514;30.724;2023-08-21T07:37:19;100970.28;;;48.30
42673;BMP280;28284;46.514;30.724;2023-08-21T07:39:45;100971.84;;;48.18
42673;BMP280;28284;46.514;30.724;2023-08-21T07:42:11;100968.56;;;47.94
42673;BMP280;28284;46.514;30.724;2023-08-21T07:44:36;100966.88;;;47.74
42673;BMP280;28284;46.514;30.724;2023-08-21T07:47:02;100963.06;;;47.70
42673;BMP280;28284;46.514;30.724;2023-08-21T07:49:27;100962.75;;;47.64
42673;BMP280;28284;46.514;30.724;2023-08-21T07:51:53;100971.06;;;47.43
42673;BMP280;28284;46.514;30.724;2023-08-21T07:54:18;100958.16;;;47.02
42673;BMP280;28284;46.514;30.724;2023-08-21T07:56:43;100954.56;;;46.75
42673;BMP280;28284;46.514;30.724;2023-08-21T07:59:09;100956.50;;;46.19
42673;BMP280;28284;46.514;30.724;2023-08-21T08:01:34;100962.19;;;45.56
42673;BMP280;28284;46.514;30.724;2023-08-21T08:04:00;100962.28;;;45.34
42673;BMP280;28284;46.514;30.724;2023-08-21T08:06:25;100956.53;;;44.86
42673;BMP280;28284;46.514;30.724;2023-08-21T08:08:50;100954.91;;;44.61
42673;BMP280;28284;46.514;30.724;2023-08-21T08:11:16;100953.88;;;43.90
42673;BMP280;28284;46.514;30.724;2023-08-21T08:13:41;100928.03;;;43.15
42673;BMP280;28284;46.514;30.724;2023-08-21T08:16:06;100945.47;;;42.79
42673;BMP280;28284;46.514;30.724;2023-08-21T08:18:31;100939.66;;;42.68
42673;BMP280;28284;46.514;30.724;2023-08-21T08:20:57;100940.00;;;42.62
42673;BMP280;28284;46.514;30.724;2023-08-21T08:23:22;100939.63;;;42.28
42673;BMP280;28284;46.514;30.724;2023-08-21T08:25:48;100938.16;;;41.81
42673;BMP280;28284;46.514;30.724;2023-08-21T08:28:13;100945.28;;;41.25
42673;BMP280;28284;46.514;30.724;2023-08-21T08:30:39;100933.41;;;41.01
42673;BMP280;28284;46.514;30.724;2023-08-21T08:33:04;100891.75;;;40.96
42673;BMP280;28284;46.514;30.724;2023-08-21T08:35:29;100923.44;;;41.37
42673;BMP280;28284;46.514;30.724;2023-08-21T08:37:55;100922.66;;;41.18
42673;BMP280;28284;46.514;30.724;2023-08-21T08:40:22;100911.97;;;41.45
42673;BMP280;28284;46.514;30.724;2023-08-21T08:42:47;100919.56;;;41.42
42673;BMP280;28284;46.514;30.724;2023-08-21T08:45:13;100913.44;;;41.36
42673;BMP280;28284;46.514;30.724;2023-08-21T08:47:39;100913.00;;;41.40
42673;BMP280;28284;46.514;30.724;2023-08-21T08:50:06;100906.63;;;41.13
42673;BMP280;28284;46.514;30.724;2023-08-21T08:52:36;100910.25;;;41.23
42673;BMP280;28284;46.514;30.724;2023-08-21T08:55:01;100900.16;;;41.03
42673;BMP280;28284;46.514;30.724;2023-08-21T08:57:28;100907.41;;;40.78
42673;BMP280;28284;46.514;30.724;2023-08-21T08:59:53;100901.91;;;40.89
42673;BMP280;28284;46.514;30.724;2023-08-21T09:02:18;100901.38;;;41.10
42673;BMP280;28284;46.514;30.724;2023-08-21T09:04:44;100909.06;;;41.35
42673;BMP280;28284;46.514;30.724;2023-08-21T09:07:09;100904.47;;;41.58
42673;BMP280;28284;46.514;30.724;2023-08-21T09:09:44;100899.06;;;41.81
42673;BMP280;28284;46.514;30.724;2023-08-21T09:12:11;100906.44;;;41.84
42673;BMP280;28284;46.514;30.724;2023-08-21T09:14:37;100895.91;;;41.86
42673;BMP280;28284;46.514;30.724;2023-08-21T09:17:03;100896.66;;;41.87
42673;BMP280;28284;46.514;30.724;2023-08-21T09:19:29;100898.34;;;41.90
42673;BMP280;28284;46.514;30.724;2023-08-21T09:21:54;100894.09;;;42.00
42673;BMP280;28284;46.514;30.724;2023-08-21T09:24:19;100886.94;;;41.99
42673;BMP280;28284;46.514;30.724;2023-08-21T09:26:44;100891.25;;;41.91
42673;BMP280;28284;46.514;30.724;2023-08-21T09:29:10;100888.44;;;41.82
42673;BMP280;28284;46.514;30.724;2023-08-21T09:31:36;100891.31;;;41.72
42673;BMP280;28284;46.514;30.724;2023-08-21T09:34:02;100891.88;;;41.52
42673;BMP280;28284;46.514;30.724;2023-08-21T09:36:31;100886.94;;;41.52
42673;BMP280;28284;46.514;30.724;2023-08-21T09:38:56;100887.34;;;41.21
42673;BMP280;28284;46.514;30.724;2023-08-21T09:41:22;100887.59;;;41.15
42673;BMP280;28284;46.514;30.724;2023-08-21T09:43:47;100881.47;;;41.19
42673;BMP280;28284;46.514;30.724;2023-08-21T09:46:16;100887.06;;;41.17
42673;BMP280;28284;46.514;30.724;2023-08-21T09:48:43;100873.84;;;41.12
42673;BMP280;28284;46.514;30.724;2023-08-21T09:51:08;100880.56;;;41.07
42673;BMP280;28284;46.514;30.724;2023-08-21T09:53:34;100880.69;;;41.00
42673;BMP280;28284;46.514;30.724;2023-08-21T09:56:00;100876.63;;;40.84
42673;BMP280;28284;46.514;30.724;2023-08-21T09:58:28;100874.91;;;40.72
42673;BMP280;28284;46.514;30.724;2023-08-21T10:00:56;100873.69;;;40.65
42673;BMP280;28284;46.514;30.724;2023-08-21T10:03:22;100866.44;;;40.55
42673;BMP280;28284;46.514;30.724;2023-08-21T10:05:48;100868.81;;;40.49
42673;BMP280;28284;46.514;30.724;2023-08-21T10:08:13;100857.56;;;40.41
42673;BMP280;28284;46.514;30.724;2023-08-21T10:10:40;100875.91;;;40.31
42673;BMP280;28284;46.514;30.724;2023-08-21T10:13:06;100858.38;;;40.25
42673;BMP280;28284;46.514;30.724;2023-08-21T10:15:32;100862.81;;;40.19
42673;BMP280;28284;46.514;30.724;2023-08-21T10:18:00;100861.84;;;40.07
42673;BMP280;28284;46.514;30.724;2023-08-21T10:20:42;100854.31;;;40.02
42673;BMP280;28284;46.514;30.724;2023-08-21T10:23:07;100858.25;;;39.90
42673;BMP280;28284;46.514;30.724;2023-08-21T10:25:32;100848.44;;;39.74
42673;BMP280;28284;46.514;30.724;2023-08-21T10:28:06;100849.03;;;39.56
42673;BMP280;28284;46.514;30.724;2023-08-21T10:30:31;100850.44;;;39.47
42673;BMP280;28284;46.514;30.724;2023-08-21T10:32:57;100832.34;;;39.43
42673;BMP280;28284;46.514;30.724;2023-08-21T10:35:30;100843.41;;;39.31
42673;BMP280;28284;46.514;30.724;2023-08-21T10:40:37;100832.63;;;39.13
42673;BMP280;28284;46.514;30.724;2023-08-21T10:43:03;100835.94;;;39.02
42673;BMP280;28284;46.514;30.724;2023-08-21T10:45:29;100829.00;;;38.96
42673;BMP280;28284;46.514;30.724;2023-08-21T10:47:57;100834.34;;;38.92
42673;BMP280;28284;46.514;30.724;2023-08-21T10:50:23;100833.22;;;38.87
42673;BMP280;28284;46.514;30.724;2023-08-21T10:52:48;100830.06;;;38.83
42673;BMP280;28284;46.514;30.724;2023-08-21T10:55:16;100830.28;;;38.78
42673;BMP280;28284;46.514;30.724;2023-08-21T10:57:43;100833.53;;;38.75
42673;BMP280;28284;46.514;30.724;2023-08-21T11:00:10;100827.53;;;38.71
42673;BMP280;28284;46.514;30.724;2023-08-21T11:02:37;100819.41;;;38.67
42673;BMP280;28284;46.514;30.724;2023-08-21T11:05:02;100829.25;;;38.66
42673;BMP280;28284;46.514;30.724;2023-08-21T11:07:29;100822.47;;;38.62
42673;BMP280;28284;46.514;30.724;2023-08-21T11:09:55;100827.41;;;38.61
42673;BMP280;28284;46.514;30.724;2023-08-21T11:12:21;100813.78;;;38.60
42673;BMP280;28284;46.514;30.724;2023-08-21T11:14:47;100817.97;;;38.59
42673;BMP280;28284;46.514;30.724;2023-08-21T11:17:12;100817.97;;;38.59
42673;BMP280;28284;46.514;30.724;2023-08-21T11:19:38;100813.25;;;38.61
42673;BMP280;28284;46.514;30.724;2023-08-21T11:22:03;100821.13;;;38.63
42673;BMP280;28284;46.514;30.724;2023-08-21T11:24:40;100814.72;;;38.62
42673;BMP280;28284;46.514;30.724;2023-08-21T11:27:09;100816.63;;;38.60
42673;BMP280;28284;46.514;30.724;2023-08-21T11:29:44;100808.69;;;38.66
42673;BMP280;28284;46.514;30.724;2023-08-21T11:32:10;100814.88;;;38.72
42673;BMP280;28284;46.514;30.724;2023-08-21T11:34:37;100814.59;;;38.77
42673;BMP280;28284;46.514;30.724;2023-08-21T11:37:03;100813.88;;;38.77
42673;BMP280;28284;46.514;30.724;2023-08-21T11:39:38;100805.03;;;38.73
42673;BMP280;28284;46.514;30.724;2023-08-21T11:42:08;100823.41;;;38.64
42673;BMP280;28284;46.514;30.724;2023-08-21T11:44:33;100808.22;;;38.52
42673;BMP280;28284;46.514;30.724;2023-08-21T11:47:04;100814.47;;;38.43
42673;BMP280;28284;46.514;30.724;2023-08-21T11:49:29;100812.25;;;38.42
42673;BMP280;28284;46.514;30.724;2023-08-21T11:51:55;100813.56;;;38.41
42673;BMP280;28284;46.514;30.724;2023-08-21T11:54:20;100805.47;;;38.38
42673;BMP280;28284;46.514;30.724;2023-08-21T11:56:46;100803.03;;;38.34
42673;BMP280;28284;46.514;30.724;2023-08-21T11:59:20;100805.63;;;38.39
42673;BMP280;28284;46.514;30.724;2023-08-21T12:01:49;100808.63;;;38.41
42673;BMP280;28284;46.514;30.724;2023-08-21T12:04:15;100804.47;;;38.42
42673;BMP280;28284;46.514;30.724;2023-08-21T12:06:46;100805.06;;;38.41
42673;BMP280;28284;46.514;30.724;2023-08-21T12:09:11;100803.91;;;38.44
42673;BMP280;28284;46.514;30.724;2023-08-21T12:11:36;100798.44;;;38.46
42673;BMP280;28284;46.514;30.724;2023-08-21T12:14:03;100789.34;;;38.47
42673;BMP280;28284;46.514;30.724;2023-08-21T12:16:29;100793.13;;;38.42
42673;BMP280;28284;46.514;30.724;2023-08-21T12:18:54;100790.50;;;38.44
42673;BMP280;28284;46.514;30.724;2023-08-21T12:21:22;100794.47;;;38.41
42673;BMP280;28284;46.514;30.724;2023-08-21T12:23:47;100789.59;;;38.42
42673;BMP280;28284;46.514;30.724;2023-08-21T12:26:13;100783.38;;;38.36
42673;BMP280;28284;46.514;30.724;2023-08-21T12:28:43;100792.38;;;38.18
42673;BMP280;28284;46.514;30.724;2023-08-21T12:31:08;100758.09;;;38.06
42673;BMP280;28284;46.514;30.724;2023-08-21T12:33:34;100774.53;;;38.00
42673;BMP280;28284;46.514;30.724;2023-08-21T12:35:59;100777.38;;;38.00
42673;BMP280;28284;46.514;30.724;2023-08-21T12:38:24;100781.25;;;38.12
42673;BMP280;28284;46.514;30.724;2023-08-21T12:40:54;100775.03;;;38.14
42673;BMP280;28284;46.514;30.724;2023-08-21T12:43:19;100766.91;;;38.10
42673;BMP280;28284;46.514;30.724;2023-08-21T12:45:44;100770.47;;;38.18
42673;BMP280;28284;46.514;30.724;2023-08-21T12:48:10;100771.78;;;38.17
42673;BMP280;28284;46.514;30.724;2023-08-21T12:50:35;100768.59;;;38.21
42673;BMP280;28284;46.514;30.724;2023-08-21T12:53:01;100764.38;;;38.29
42673;BMP280;28284;46.514;30.724;2023-08-21T12:55:26;100762.28;;;38.30
42673;BMP280;28284;46.514;30.724;2023-08-21T12:57:52;100761.91;;;38.33
42673;BMP280;28284;46.514;30.724;2023-08-21T13:00:17;100762.63;;;38.34
42673;BMP280;28284;46.514;30.724;2023-08-21T13:02:43;100767.72;;;38.35
42673;BMP280;28284;46.514;30.724;2023-08-21T13:05:08;100758.63;;;38.37
42673;BMP280;28284;46.514;30.724;2023-08-21T13:07:33;100759.41;;;38.37
42673;BMP280;28284;46.514;30.724;2023-08-21T13:09:58;100757.72;;;38.34
42673;BMP280;28284;46.514;30.724;2023-08-21T13:12:24;100754.56;;;38.30
42673;BMP280;28284;46.514;30.724;2023-08-21T13:14:49;100755.13;;;38.29
42673;BMP280;28284;46.514;30.724;2023-08-21T13:17:15;100760.97;;;38.23
42673;BMP280;28284;46.514;30.724;2023-08-21T13:19:40;100753.31;;;38.16
42673;BMP280;28284;46.514;30.724;2023-08-21T13:22:05;100753.88;;;38.15
42673;BMP280;28284;46.514;30.724;2023-08-21T13:24:30;100752.75;;;38.18
42673;BMP280;28284;46.514;30.724;2023-08-21T13:26:57;100745.00;;;38.18
42673;BMP280;28284;46.514;30.724;2023-08-21T13:29:22;100749.13;;;38.17
42673;BMP280;28284;46.514;30.724;2023-08-21T13:31:48;100745.00;;;38.18
42673;BMP280;28284;46.514;30.724;2023-08-21T13:34:13;100742.38;;;38.13
42673;BMP280;28284;46.514;30.724;2023-08-21T13:36:38;100740.31;;;38.13
42673;BMP280;28284;46.514;30.724;2023-08-21T13:39:04;100737.47;;;38.13
42673;BMP280;28284;46.514;30.724;2023-08-21T13:41:31;100733.59;;;38.01
42673;BMP280;28284;46.514;30.724;2023-08-21T13:43:56;100741.75;;;37.90